createdAt,value
2022-12-03T00:00:37.592Z,2.40
2022-12-03T00:03:05.735Z,2.50
2022-12-03T00:05:34.028Z,2.40
2022-12-03T00:08:02.052Z,2.50
2022-12-03T00:10:30.135Z,2.40
2022-12-03T00:12:59.507Z,2.40
2022-12-03T00:15:27.575Z,2.40
2022-12-03T00:17:55.701Z,2.50
2022-12-03T00:20:25.191Z,2.50
2022-12-03T00:22:53.607Z,2.50
2022-12-03T00:25:21.643Z,2.50
2022-12-03T00:27:49.657Z,2.40
2022-12-03T00:30:19.139Z,2.50
2022-12-03T00:32:47.222Z,2.40
2022-12-03T00:35:15.232Z,2.50
2022-12-03T00:37:43.367Z,2.60
2022-12-03T00:40:12.664Z,2.50
2022-12-03T00:42:40.672Z,2.50
2022-12-03T00:45:09.373Z,2.40
2022-12-03T00:47:38.896Z,2.50
2022-12-03T00:50:08.532Z,2.60
2022-12-03T00:52:36.557Z,2.60
2022-12-03T00:55:04.775Z,2.60
2022-12-03T00:57:32.766Z,2.60
2022-12-03T01:00:00.754Z,2.60
2022-12-03T01:02:28.752Z,2.60
2022-12-03T01:04:58.427Z,2.60
2022-12-03T01:07:26.598Z,2.60
2022-12-03T01:09:54.704Z,2.60
2022-12-03T01:12:22.775Z,2.70
2022-12-03T01:14:51.502Z,2.70
2022-12-03T01:17:19.758Z,2.60
2022-12-03T01:19:48.572Z,2.60
2022-12-03T01:22:18.104Z,2.60
2022-12-03T01:24:46.108Z,2.70
2022-12-03T01:27:14.149Z,2.60
2022-12-03T01:29:42.192Z,2.60
2022-12-03T01:32:19.384Z,2.70
2022-12-03T01:34:48.549Z,2.70
2022-12-03T01:37:18.307Z,2.70
2022-12-03T01:39:46.320Z,2.60
2022-12-03T01:42:18.096Z,2.70
2022-12-03T01:44:46.535Z,2.70
2022-12-03T01:47:18.087Z,2.70
2022-12-03T01:49:50.364Z,2.70
2022-12-03T01:52:23.536Z,2.60
2022-12-03T01:54:54.687Z,2.70
2022-12-03T01:57:26.350Z,2.70
2022-12-03T01:59:56.575Z,2.70
2022-12-03T02:02:28.292Z,2.60
2022-12-03T02:04:57.108Z,2.60
2022-12-03T02:07:30.049Z,2.60
2022-12-03T02:09:59.701Z,2.70
2022-12-03T02:12:32.011Z,2.70
2022-12-03T02:15:00.476Z,2.60
2022-12-03T02:17:29.968Z,2.70
2022-12-03T02:19:58.495Z,2.70
2022-12-03T02:22:39.146Z,2.60
2022-12-03T02:25:17.341Z,2.60
2022-12-03T02:27:45.932Z,2.60
2022-12-03T02:30:16.682Z,2.60
2022-12-03T02:32:44.709Z,2.60
2022-12-03T02:35:17.040Z,2.60
2022-12-03T02:37:46.936Z,2.60
2022-12-03T02:40:21.329Z,2.60
2022-12-03T02:42:49.931Z,2.70
2022-12-03T02:45:21.130Z,2.60
2022-12-03T02:47:52.733Z,2.60
2022-12-03T02:50:23.152Z,2.60
2022-12-03T02:52:54.820Z,2.60
2022-12-03T02:55:25.118Z,2.60
2022-12-03T02:57:53.410Z,2.60
2022-12-03T03:00:24.127Z,2.50
2022-12-03T03:02:52.186Z,2.60
2022-12-03T03:05:23.031Z,2.60
2022-12-03T03:07:52.134Z,2.60
2022-12-03T03:10:24.350Z,2.60
2022-12-03T03:12:55.227Z,2.50
2022-12-03T03:15:24.218Z,2.60
2022-12-03T03:17:52.725Z,2.60
2022-12-03T03:20:21.135Z,2.50
2022-12-03T03:22:49.561Z,2.60
2022-12-03T03:25:22.352Z,2.50
2022-12-03T03:27:51.886Z,2.50
2022-12-03T03:30:20.088Z,2.50
2022-12-03T03:32:48.153Z,2.50
2022-12-03T03:35:17.884Z,2.60
2022-12-03T03:37:46.028Z,2.60
2022-12-03T03:40:14.253Z,2.60
2022-12-03T03:42:42.397Z,2.60
2022-12-03T03:45:12.306Z,2.60
2022-12-03T03:47:40.850Z,2.60
2022-12-03T03:50:11.520Z,2.60
2022-12-03T03:52:41.218Z,2.60
2022-12-03T03:55:11.292Z,2.60
2022-12-03T03:57:39.896Z,2.60
2022-12-03T04:00:09.410Z,2.60
2022-12-03T04:02:39.237Z,2.60
2022-12-03T04:05:08.467Z,2.60
2022-12-03T04:07:36.547Z,2.60
2022-12-03T04:10:25.572Z,2.60
2022-12-03T04:12:57.106Z,2.50
2022-12-03T04:15:25.514Z,2.50
2022-12-03T04:18:09.064Z,2.50
2022-12-03T04:20:37.126Z,2.50
2022-12-03T04:23:04.403Z,2.50
2022-12-03T04:25:55.772Z,2.50
2022-12-03T04:28:41.365Z,2.40
2022-12-03T04:31:23.315Z,2.40
2022-12-03T04:34:10.398Z,2.50
2022-12-03T04:36:38.745Z,2.40
2022-12-03T04:39:06.813Z,2.40
2022-12-03T04:41:34.835Z,2.40
2022-12-03T04:44:20.212Z,2.40
2022-12-03T04:46:48.250Z,2.40
2022-12-03T04:49:17.646Z,2.40
2022-12-03T04:51:45.678Z,2.40
2022-12-03T04:54:13.885Z,2.30
2022-12-03T04:56:41.970Z,2.40
2022-12-03T04:59:15.987Z,2.40
2022-12-03T05:01:44.958Z,2.40
2022-12-03T05:04:13.589Z,2.40
2022-12-03T05:06:43.795Z,2.40
2022-12-03T05:09:12.836Z,2.40
2022-12-03T05:11:41.246Z,2.30
2022-12-03T05:14:09.408Z,2.40
2022-12-03T05:16:37.693Z,2.40
2022-12-03T05:19:07.286Z,2.50
2022-12-03T05:21:35.348Z,2.40
2022-12-03T05:24:05.406Z,2.40
2022-12-03T05:26:33.430Z,2.40
2022-12-03T05:29:02.619Z,2.40
2022-12-03T05:31:30.695Z,2.50
2022-12-03T05:33:58.766Z,2.40
2022-12-03T05:36:26.770Z,2.40
2022-12-03T05:38:54.782Z,2.30
2022-12-03T05:41:41.516Z,2.30
2022-12-03T05:44:09.551Z,2.30
2022-12-03T05:46:37.638Z,2.30
2022-12-03T05:49:05.780Z,2.30
2022-12-03T05:51:33.739Z,2.30
2022-12-03T05:54:01.733Z,2.30
2022-12-03T05:56:31.129Z,2.30
2022-12-03T05:58:59.116Z,2.30
2022-12-03T06:01:27.172Z,2.30
2022-12-03T06:03:55.236Z,2.20
2022-12-03T06:06:23.294Z,2.20
2022-12-03T06:08:51.310Z,2.20
2022-12-03T06:11:19.379Z,2.20
2022-12-03T06:13:48.783Z,2.20
2022-12-03T06:16:16.870Z,2.10
2022-12-03T06:18:45.011Z,2.10
2022-12-03T06:21:13.007Z,2.10
2022-12-03T06:23:44.932Z,2.10
2022-12-03T06:26:13.205Z,2.20
2022-12-03T06:28:45.562Z,2.20
2022-12-03T06:31:15.344Z,2.10
2022-12-03T06:33:43.429Z,2.10
2022-12-03T06:36:11.542Z,2.10
2022-12-03T06:38:39.602Z,2.00
2022-12-03T06:41:07.601Z,2.10
2022-12-03T06:43:35.651Z,2.10
2022-12-03T06:46:03.743Z,2.00
2022-12-03T06:48:33.180Z,2.00
2022-12-03T06:51:01.214Z,2.00
2022-12-03T06:53:32.054Z,2.00
2022-12-03T06:56:00.090Z,2.00
2022-12-03T06:58:28.097Z,2.00
2022-12-03T07:00:56.129Z,1.90
2022-12-03T07:03:24.202Z,1.90
2022-12-03T07:05:53.626Z,1.90
2022-12-03T07:08:21.713Z,1.90
2022-12-03T07:10:49.717Z,1.80
2022-12-03T07:13:32.828Z,1.80
2022-12-03T07:16:00.929Z,1.80
2022-12-03T07:18:28.986Z,1.80
2022-12-03T07:20:58.375Z,1.80
2022-12-03T07:23:26.373Z,1.80
2022-12-03T07:25:54.386Z,1.80
2022-12-03T07:28:22.415Z,1.80
2022-12-03T07:30:52.761Z,1.80
2022-12-03T07:33:20.940Z,1.80
2022-12-03T07:35:48.953Z,1.80
2022-12-03T07:38:18.303Z,1.80
2022-12-03T07:40:46.949Z,1.80
2022-12-03T07:43:16.519Z,1.80
2022-12-03T07:45:44.562Z,1.80
2022-12-03T07:48:12.587Z,1.80
2022-12-03T07:50:40.893Z,1.80
2022-12-03T07:53:09.085Z,1.90
2022-12-03T07:55:38.525Z,2.00
2022-12-03T07:58:07.127Z,2.00
2022-12-03T08:00:35.218Z,2.10
2022-12-03T08:03:03.281Z,2.20
2022-12-03T08:05:31.334Z,2.10
2022-12-03T08:07:59.451Z,2.20
2022-12-03T08:10:27.522Z,2.30
2022-12-03T08:12:59.243Z,2.30
2022-12-03T08:15:33.850Z,2.30
2022-12-03T08:18:14.458Z,2.40
2022-12-03T08:20:44.099Z,2.50
2022-12-03T08:23:15.280Z,2.70
2022-12-03T08:25:43.892Z,3.00
2022-12-03T08:28:19.835Z,3.00
2022-12-03T08:31:20.545Z,3.20
2022-12-03T08:33:50.180Z,3.20
2022-12-03T08:36:21.934Z,3.10
2022-12-03T08:38:52.811Z,3.00
2022-12-03T08:41:42.255Z,3.20
2022-12-03T08:44:29.428Z,3.40
2022-12-03T08:47:08.058Z,4.00
2022-12-03T08:49:36.415Z,3.90
2022-12-03T08:52:13.560Z,4.10
2022-12-03T08:54:43.993Z,3.90
2022-12-03T08:57:25.770Z,4.30
2022-12-03T08:59:59.049Z,4.60
2022-12-03T09:02:33.037Z,4.80
2022-12-03T09:05:14.784Z,5.50
2022-12-03T09:07:42.869Z,5.10
2022-12-03T09:10:11.604Z,4.50
2022-12-03T09:12:39.782Z,4.70
2022-12-03T09:15:10.128Z,4.50
2022-12-03T09:17:41.228Z,4.40
2022-12-03T09:20:10.013Z,4.50
2022-12-03T09:22:38.218Z,4.30
2022-12-03T09:25:07.051Z,4.10
2022-12-03T09:27:35.233Z,4.00
2022-12-03T09:30:03.366Z,4.10
2022-12-03T09:32:32.833Z,4.10
2022-12-03T09:35:00.963Z,4.10
2022-12-03T09:37:28.977Z,4.00
2022-12-03T09:39:56.974Z,3.90
2022-12-03T09:42:26.309Z,3.80
2022-12-03T09:44:55.235Z,3.70
2022-12-03T09:47:25.093Z,3.50
2022-12-03T09:49:54.976Z,3.50
2022-12-03T09:52:26.251Z,3.40
2022-12-03T09:54:55.930Z,3.40
2022-12-03T09:57:24.413Z,3.40
2022-12-03T09:59:52.795Z,3.30
2022-12-03T10:02:25.967Z,3.30
2022-12-03T10:04:55.788Z,3.30
2022-12-03T10:07:24.732Z,3.20
2022-12-03T10:09:53.237Z,3.20
2022-12-03T10:12:25.753Z,3.10
2022-12-03T10:14:54.773Z,3.10
2022-12-03T10:17:22.951Z,3.10
2022-12-03T10:19:51.238Z,3.10
2022-12-03T10:22:20.822Z,3.20
2022-12-03T10:25:07.067Z,3.20
2022-12-03T10:27:35.186Z,3.30
2022-12-03T10:30:07.150Z,3.20
2022-12-03T10:32:41.674Z,3.20
2022-12-03T10:35:12.085Z,3.20
2022-12-03T10:37:58.812Z,3.00
2022-12-03T10:40:29.703Z,3.00
2022-12-03T10:43:15.139Z,3.10
2022-12-03T10:45:43.767Z,3.10
2022-12-03T10:48:15.295Z,3.10
2022-12-03T10:50:51.494Z,3.10
2022-12-03T10:53:23.198Z,3.10
2022-12-03T10:55:58.595Z,3.20
2022-12-03T10:58:29.615Z,3.20
2022-12-03T11:00:59.342Z,3.20
2022-12-03T11:03:31.738Z,3.10
2022-12-03T11:06:02.175Z,3.10
2022-12-03T11:08:35.632Z,3.10
2022-12-03T11:11:06.884Z,3.20
2022-12-03T11:13:47.045Z,3.20
2022-12-03T11:16:35.667Z,3.20
2022-12-03T11:19:04.457Z,3.30
2022-12-03T11:21:32.763Z,3.40
2022-12-03T11:24:19.427Z,3.40
2022-12-03T11:27:27.165Z,3.40
2022-12-03T11:29:59.803Z,3.40
2022-12-03T11:33:09.575Z,3.30
2022-12-03T11:36:31.753Z,3.40
2022-12-03T11:39:09.826Z,3.50
2022-12-03T11:41:37.827Z,3.60
2022-12-03T11:44:31.355Z,3.70
2022-12-03T11:47:02.067Z,3.90
2022-12-03T11:49:40.315Z,3.90
2022-12-03T11:52:28.828Z,3.80
2022-12-03T11:55:02.844Z,3.80
2022-12-03T11:57:34.704Z,3.80
2022-12-03T12:00:11.236Z,3.80
2022-12-03T12:02:43.200Z,3.70
2022-12-03T12:05:35.550Z,3.80
2022-12-03T12:08:04.187Z,3.80
2022-12-03T12:10:45.337Z,3.70
2022-12-03T12:13:54.378Z,3.80
2022-12-03T12:16:50.542Z,3.80
2022-12-03T12:19:33.287Z,4.00
2022-12-03T12:22:15.421Z,3.90
2022-12-03T12:24:52.300Z,3.70
2022-12-03T12:27:24.539Z,3.70
2022-12-03T12:29:55.161Z,3.70
2022-12-03T12:32:27.243Z,3.70
2022-12-03T12:34:58.952Z,3.70
2022-12-03T12:37:33.813Z,3.60
2022-12-03T12:40:07.201Z,3.60
2022-12-03T12:42:38.085Z,3.60
2022-12-03T12:45:17.492Z,3.60
2022-12-03T12:47:50.719Z,3.60
2022-12-03T12:50:19.920Z,3.60
2022-12-03T12:52:51.485Z,3.50
2022-12-03T12:55:20.434Z,3.30
2022-12-03T12:57:49.918Z,3.30
2022-12-03T13:00:20.744Z,3.20
2022-12-03T13:02:55.564Z,3.30
2022-12-03T13:05:27.581Z,3.20
2022-12-03T13:07:56.992Z,3.20
2022-12-03T13:10:39.808Z,3.30
2022-12-03T13:13:23.080Z,3.30
2022-12-03T13:16:03.806Z,3.30
2022-12-03T13:18:41.978Z,3.30
2022-12-03T13:21:22.108Z,3.10
2022-12-03T13:23:52.271Z,3.20
2022-12-03T13:26:38.602Z,3.20
2022-12-03T13:29:15.998Z,3.20
2022-12-03T13:31:51.310Z,3.20
2022-12-03T13:34:22.301Z,3.10
2022-12-03T13:36:57.691Z,3.10
2022-12-03T13:39:30.529Z,3.10
2022-12-03T13:42:19.561Z,3.10
2022-12-03T13:44:50.761Z,3.10
2022-12-03T13:47:22.540Z,3.00
2022-12-03T13:49:53.770Z,3.10
2022-12-03T13:52:24.891Z,3.10
2022-12-03T13:54:54.945Z,3.00
2022-12-03T13:57:23.345Z,3.00
2022-12-03T13:59:53.022Z,3.00
2022-12-03T14:02:21.305Z,2.90
2022-12-03T14:04:49.489Z,3.00
2022-12-03T14:07:17.879Z,2.90
2022-12-03T14:09:45.895Z,2.90
2022-12-03T14:12:33.475Z,2.90
2022-12-03T14:15:03.170Z,2.90
2022-12-03T14:17:31.386Z,2.90
2022-12-03T14:20:00.932Z,2.90
2022-12-03T14:22:28.961Z,2.90
2022-12-03T14:24:57.515Z,2.90
2022-12-03T14:27:25.683Z,2.90
2022-12-03T14:29:54.171Z,2.80
2022-12-03T14:32:23.927Z,2.80
2022-12-03T14:34:52.062Z,2.80
2022-12-03T14:37:20.393Z,2.80
2022-12-03T14:39:48.398Z,2.90
2022-12-03T14:42:16.813Z,2.80
2022-12-03T14:44:46.377Z,2.80
2022-12-03T14:47:17.891Z,2.80
2022-12-03T14:49:47.841Z,2.80
2022-12-03T14:52:16.007Z,2.90
2022-12-03T14:54:44.376Z,2.80
2022-12-03T14:57:13.724Z,2.80
2022-12-03T14:59:42.493Z,2.80
2022-12-03T15:02:11.499Z,2.80
2022-12-03T15:04:39.809Z,2.80
2022-12-03T15:07:09.388Z,2.80
2022-12-03T15:09:37.418Z,2.80
2022-12-03T15:12:05.924Z,2.80
2022-12-03T15:14:33.911Z,2.80
2022-12-03T15:17:01.929Z,2.70
2022-12-03T15:19:30.072Z,2.70
2022-12-03T15:21:58.080Z,2.70
2022-12-03T15:24:27.488Z,2.70
2022-12-03T15:26:56.902Z,2.70
2022-12-03T15:29:25.070Z,2.60
2022-12-03T15:31:53.134Z,2.70
2022-12-03T15:34:23.107Z,2.60
2022-12-03T15:36:51.562Z,2.70
2022-12-03T15:39:22.101Z,2.70
2022-12-03T15:41:51.517Z,2.70
2022-12-03T15:44:19.491Z,2.70
2022-12-03T15:46:47.533Z,2.70
2022-12-03T15:49:15.678Z,2.70
2022-12-03T15:51:43.721Z,2.60
2022-12-03T15:54:12.446Z,2.70
2022-12-03T15:56:40.708Z,2.60
2022-12-03T15:59:10.107Z,2.60
2022-12-03T16:01:38.208Z,2.60
2022-12-03T16:04:06.423Z,2.60
2022-12-03T16:06:34.434Z,2.60
2022-12-03T16:09:02.486Z,2.60
2022-12-03T16:11:30.577Z,2.60
2022-12-03T16:13:58.588Z,2.60
2022-12-03T16:16:28.071Z,2.60
2022-12-03T16:18:56.175Z,2.60
2022-12-03T16:21:26.989Z,2.60
2022-12-03T16:23:55.663Z,2.60
2022-12-03T16:26:24.589Z,2.50
2022-12-03T16:28:52.630Z,2.50
2022-12-03T16:31:20.808Z,2.50
2022-12-03T16:33:50.273Z,2.60
2022-12-03T16:36:18.328Z,2.50
2022-12-03T16:38:46.338Z,2.50
2022-12-03T16:41:14.397Z,2.60
2022-12-03T16:43:45.470Z,2.50
2022-12-03T16:46:26.092Z,2.50
2022-12-03T16:48:57.900Z,2.50
2022-12-03T16:51:26.951Z,2.50
2022-12-03T16:53:55.616Z,2.60
2022-12-03T16:56:23.622Z,2.50
2022-12-03T16:58:51.642Z,2.50
2022-12-03T17:01:19.744Z,2.50
2022-12-03T17:03:47.824Z,2.50
2022-12-03T17:06:17.230Z,2.40
2022-12-03T17:08:49.304Z,2.30
2022-12-03T17:11:18.951Z,2.40
2022-12-03T17:13:47.388Z,2.40
2022-12-03T17:16:15.621Z,2.40
2022-12-03T17:18:44.121Z,2.40
2022-12-03T17:21:12.330Z,2.40
2022-12-03T17:23:41.714Z,2.40
2022-12-03T17:26:09.805Z,2.30
2022-12-03T17:28:37.849Z,2.40
2022-12-03T17:31:06.153Z,2.40
2022-12-03T17:33:35.548Z,2.40
2022-12-03T17:36:03.574Z,2.30
2022-12-03T17:38:37.345Z,2.30
2022-12-03T17:41:08.676Z,2.30
2022-12-03T17:43:36.810Z,2.30
2022-12-03T17:46:06.582Z,2.40
2022-12-03T17:48:35.499Z,2.40
2022-12-03T17:51:03.979Z,2.40
2022-12-03T17:53:32.072Z,2.40
2022-12-03T17:56:00.072Z,2.30
2022-12-03T17:58:29.744Z,2.30
2022-12-03T18:01:02.477Z,2.30
2022-12-03T18:03:32.543Z,2.30
2022-12-03T18:06:00.651Z,2.40
2022-12-03T18:08:28.838Z,2.30
2022-12-03T18:10:56.846Z,2.30
2022-12-03T18:13:26.050Z,2.30
2022-12-03T18:15:55.793Z,2.30
2022-12-03T18:18:23.885Z,2.40
2022-12-03T18:20:53.690Z,2.30
2022-12-03T18:23:21.928Z,2.30
2022-12-03T18:25:49.931Z,2.30
2022-12-03T18:28:17.966Z,2.30
2022-12-03T18:30:52.265Z,2.30
2022-12-03T18:33:23.326Z,2.30
2022-12-03T18:35:54.185Z,2.30
2022-12-03T18:38:23.597Z,2.30
2022-12-03T18:40:56.638Z,2.20
2022-12-03T18:43:26.199Z,2.30
2022-12-03T18:45:54.280Z,2.20
2022-12-03T18:48:23.814Z,2.30
2022-12-03T18:50:51.900Z,2.30
2022-12-03T18:53:20.510Z,2.30
2022-12-03T18:55:49.604Z,2.30
2022-12-03T18:58:19.328Z,2.20
2022-12-03T19:00:48.335Z,2.30
2022-12-03T19:03:16.877Z,2.30
2022-12-03T19:05:46.395Z,2.30
2022-12-03T19:08:15.485Z,2.20
2022-12-03T19:10:44.159Z,2.20
2022-12-03T19:13:12.435Z,2.30
2022-12-03T19:15:41.008Z,2.30
2022-12-03T19:18:09.080Z,2.30
2022-12-03T19:20:40.295Z,2.40
2022-12-03T19:23:10.235Z,2.30
2022-12-03T19:25:38.285Z,2.30
2022-12-03T19:28:06.676Z,2.40
2022-12-03T19:30:34.935Z,2.30
2022-12-03T19:33:02.999Z,2.40
2022-12-03T19:35:31.264Z,2.30
2022-12-03T19:37:59.453Z,2.40
2022-12-03T19:40:28.829Z,2.30
2022-12-03T19:42:56.932Z,2.30
2022-12-03T19:45:25.048Z,2.30
2022-12-03T19:47:53.139Z,2.20
2022-12-03T19:50:23.495Z,2.30
2022-12-03T19:52:51.945Z,2.30
2022-12-03T19:55:20.472Z,2.30
2022-12-03T19:57:50.055Z,2.20
2022-12-03T20:00:18.403Z,2.20
2022-12-03T20:02:49.019Z,2.20
2022-12-03T20:05:17.194Z,2.20
2022-12-03T20:07:45.253Z,2.20
2022-12-03T20:10:13.307Z,2.20
2022-12-03T20:12:41.302Z,2.20
2022-12-03T20:15:12.028Z,2.20
2022-12-03T20:17:40.156Z,2.20
2022-12-03T20:20:09.545Z,2.20
2022-12-03T20:22:37.574Z,2.20
2022-12-03T20:25:06.163Z,2.10
2022-12-03T20:27:34.233Z,2.10
2022-12-03T20:30:02.501Z,2.10
2022-12-03T20:32:32.411Z,2.00
2022-12-03T20:35:00.396Z,2.10
2022-12-03T20:37:28.452Z,2.10
2022-12-03T20:39:56.760Z,2.00
2022-12-03T20:42:25.015Z,2.00
2022-12-03T20:44:53.588Z,2.10
2022-12-03T20:47:21.630Z,2.10
2022-12-03T20:49:51.031Z,2.00
2022-12-03T20:52:19.113Z,2.10
2022-12-03T20:54:47.122Z,2.10
2022-12-03T20:57:15.224Z,2.10
2022-12-03T20:59:43.192Z,2.00
2022-12-03T21:02:11.618Z,2.00
2022-12-03T21:04:39.932Z,2.00
2022-12-03T21:07:09.277Z,2.00
2022-12-03T21:09:37.348Z,2.00
2022-12-03T21:12:05.740Z,2.00
2022-12-03T21:14:33.937Z,2.00
2022-12-03T21:17:09.755Z,2.00
2022-12-03T21:19:38.498Z,2.00
2022-12-03T21:22:06.951Z,2.00
2022-12-03T21:24:36.354Z,1.90
2022-12-03T21:27:04.588Z,1.90
2022-12-03T21:29:32.609Z,1.90
2022-12-03T21:32:00.599Z,2.00
2022-12-03T21:34:35.600Z,2.00
2022-12-03T21:37:04.808Z,1.90
2022-12-03T21:39:32.944Z,1.90
2022-12-03T21:42:34.453Z,1.90
2022-12-03T21:44:51.299Z,1.90
2022-12-03T21:47:19.472Z,2.00
2022-12-03T21:49:47.543Z,1.90
2022-12-03T21:52:15.533Z,1.90
2022-12-03T21:54:43.508Z,1.90
2022-12-03T21:57:12.896Z,1.90
2022-12-03T21:59:40.915Z,1.90
2022-12-03T22:02:10.240Z,1.80
2022-12-03T22:04:38.626Z,1.90
2022-12-03T22:07:07.220Z,1.80
2022-12-03T22:09:35.287Z,1.80
2022-12-03T22:12:03.227Z,1.80
2022-12-03T22:14:32.601Z,1.80
2022-12-03T22:17:00.616Z,1.90
2022-12-03T22:19:28.666Z,1.90
2022-12-03T22:21:56.659Z,1.90
2022-12-03T22:24:24.696Z,2.00
2022-12-03T22:26:54.659Z,1.90
2022-12-03T22:29:22.851Z,2.00
2022-12-03T22:31:52.571Z,2.00
2022-12-03T22:34:20.664Z,2.00
2022-12-03T22:36:48.728Z,2.00
2022-12-03T22:39:16.739Z,2.00
2022-12-03T22:41:44.862Z,2.00
2022-12-03T22:44:12.947Z,1.90
2022-12-03T22:46:41.048Z,2.00
2022-12-03T22:49:13.714Z,2.00
2022-12-03T22:51:42.133Z,1.90
2022-12-03T22:54:11.862Z,1.90
2022-12-03T22:56:39.891Z,1.90
2022-12-03T22:59:07.987Z,1.90
2022-12-03T23:01:38.495Z,1.90
2022-12-03T23:04:11.730Z,1.90
2022-12-03T23:06:40.035Z,2.00
2022-12-03T23:09:08.793Z,1.90
2022-12-03T23:11:37.192Z,1.90
2022-12-03T23:14:05.210Z,1.90
2022-12-03T23:16:34.342Z,1.80
2022-12-03T23:19:03.341Z,1.90
2022-12-03T23:21:34.969Z,1.80
2022-12-03T23:24:05.250Z,1.80
2022-12-03T23:26:36.563Z,1.90
2022-12-03T23:29:05.937Z,1.90
2022-12-03T23:31:35.133Z,2.00
2022-12-03T23:34:03.922Z,1.90
2022-12-03T23:36:34.635Z,1.90
2022-12-03T23:39:02.692Z,1.90
2022-12-03T23:41:30.794Z,1.90
2022-12-03T23:43:58.848Z,1.90
2022-12-03T23:46:28.215Z,1.90
2022-12-03T23:48:58.400Z,1.90
2022-12-03T23:51:27.171Z,2.00
2022-12-03T23:53:57.519Z,1.90
2022-12-03T23:56:27.657Z,1.90
2022-12-03T23:58:55.869Z,1.90
